Latest Weather Observations for Cerberus

IDV60801

Issued at 10:02 am EST Friday 29 April 2016 (issued every 30 minutes, with the page automatically refreshed every 10 minutes)

About weather observations | Map of weather stations | Latest weather observations for VIC | Other Formats
Station Details ID: 086361 Name: CERBERUS Lat: -38.36 Lon: 145.18 Height: 12.69 m
Data from the previous 72 hours. | See also: Recent months at Cerberus
Date/Time
EST
Temp
°C
App
Temp
°C
Dew
Point
Rel
Hum
%
Delta-T
°C
Wind Press
QNH
hPa
Press
MSL
hPa
Rain
since 9 am
mm
Dir
 
Spd
km/h
Gust
km/h
Spd
kts
Gust
kts
29/10:00am 17.4 17.6 14.3 82 1.8 NNW 6 15 3 8 1015.0 1014.9 0.6
29/09:30am 17.6 16.6 13.3 76 2.4 N 11 24 6 13 1014.7 1014.6 0.4
29/09:00am 18.8 19.7 13.0 69 3.3 CALM 0 0 0 0 1015.0 1014.9 0.2
29/08:30am 18.4 16.0 12.8 70 3.1 WNW 17 28 9 15 1015.5 1015.4 0.2
29/08:00am 14.7 15.5 12.7 88 1.1 CALM 0 0 0 0 1014.1 1014.0 0.2
29/07:30am 13.5 14.0 11.7 89 1.0 CALM 0 0 0 0 1013.9 1013.8 0.2
29/07:00am 13.9 14.6 12.1 89 1.0 CALM 0 0 0 0 1013.7 1013.6 0.2
29/06:30am 13.8 14.4 11.8 88 1.1 CALM 0 0 0 0 1013.8 1013.7 0.2
29/06:00am 14.0 14.5 11.7 86 1.2 CALM 0 0 0 0 1014.1 1014.0 0.2
29/05:30am 14.9 15.7 12.4 85 1.4 CALM 0 0 0 0 1014.2 1014.1 0.2
29/05:00am 14.9 15.6 12.2 84 1.5 CALM 0 0 0 0 1014.3 1014.2 0.2
29/04:30am 15.5 16.3 12.4 82 1.7 CALM 0 0 0 0 1014.3 1014.2 0.2
29/04:00am 15.8 16.6 12.4 80 1.9 CALM 0 0 0 0 1014.4 1014.3 0.2
29/03:30am 15.3 16.1 12.4 83 1.6 CALM 0 0 0 0 1014.3 1014.2 0.2
29/03:00am 15.7 16.6 13.0 84 1.5 CALM 0 0 0 0 1014.6 1014.5 0.2
29/02:30am 15.8 17.0 13.8 88 1.1 CALM 0 0 0 0 1014.9 1014.8 0.2
29/02:00am 15.4 16.5 13.6 89 1.0 CALM 0 0 0 0 1015.0 1014.9 0.2
29/01:30am 13.9 14.5 11.8 87 1.1 CALM 0 0 0 0 1015.3 1015.2 0.2
29/01:00am 14.9 15.7 12.6 86 1.3 CALM 0 0 0 0 1015.4 1015.3 0.2
29/12:30am 15.5 16.5 13.3 87 1.2 CALM 0 0 0 0 1015.6 1015.5 0.2
29/12:00am 14.8 15.6 12.5 86 1.3 CALM 0 0 0 0 1015.8 1015.7 0.2
 
Date/Time
EST
Temp
°C
App
Temp
°C
Dew
Point
Rel
Hum
%
Delta-T
°C
Wind Press
QNH
hPa
Press
MSL
hPa
Rain
since 9 am
mm
Dir
 
Spd
km/h
Gust
km/h
Spd
kts
Gust
kts
28/11:30pm 15.6 16.6 13.3 86 1.3 CALM 0 0 0 0 1016.1 1016.0 0.2
28/11:00pm 15.5 16.4 13.0 85 1.4 CALM 0 0 0 0 1016.7 1016.6 0.2
28/10:30pm 15.8 16.8 13.3 85 1.4 CALM 0 0 0 0 1017.1 1017.0 0.2
28/10:00pm 15.9 17.0 13.6 86 1.3 CALM 0 0 0 0 1017.4 1017.3 0.2
28/09:30pm 15.8 16.8 13.1 84 1.5 CALM 0 0 0 0 1017.3 1017.2 0.2
28/09:00pm 16.2 17.2 13.1 82 1.7 CALM 0 0 0 0 1017.4 1017.3 0.2
28/08:30pm 17.0 18.2 13.7 81 1.9 CALM 0 0 0 0 1017.4 1017.3 0.2
28/08:00pm 17.1 18.1 13.2 78 2.2 CALM 0 0 0 0 1017.5 1017.4 0.2
28/07:30pm 17.8 18.8 13.3 75 2.5 CALM 0 0 0 0 1017.1 1017.0 0.2
28/07:00pm 17.9 19.0 13.4 75 2.5 CALM 0 6 0 3 1016.9 1016.8 0.2
28/06:30pm 18.5 19.4 12.9 70 3.1 CALM 0 0 0 0 1016.7 1016.6 0.2
28/06:00pm 19.0 20.0 13.2 69 3.3 CALM 0 0 0 0 1016.4 1016.3 0.2
28/05:30pm 19.3 19.8 12.8 66 3.7 NNW 2 7 1 4 1016.3 1016.2 0.2
28/05:00pm 20.4 21.2 12.6 61 4.4 CALM 0 0 0 0 1016.2 1016.1 0.2
28/04:30pm 21.4 21.8 11.4 53 5.5 CALM 0 0 0 0 1016.2 1016.1 0.2
28/04:00pm 22.0 22.2 11.7 52 5.8 NNW 2 9 1 5 1016.8 1016.7 0.2
28/03:30pm 22.2 21.7 11.9 52 5.8 NNW 6 13 3 7 1016.9 1016.8 0.2
28/03:00pm 21.6 20.9 11.9 54 5.4 NW 7 11 4 6 1017.2 1017.1 0.2
28/02:30pm 21.1 20.0 12.0 56 5.1 NW 9 17 5 9 1016.9 1016.8 0.2
28/02:00pm 21.6 19.3 11.9 54 5.4 NW 15 22 8 12 1017.1 1017.0 0.0
28/01:30pm 21.8 20.0 10.9 50 6.0 NNW 11 22 6 12 1017.0 1016.9 0.0
28/01:00pm 22.9 21.2 10.0 44 7.0 NNW 9 17 5 9 1016.9 1016.8 0.0
28/12:30pm 21.6 19.7 10.4 49 6.1 N 11 19 6 10 1016.9 1016.8 0.0
28/12:00pm 22.7 20.0 9.1 42 7.3 NNW 13 20 7 11 1017.4 1017.3 0.0
28/11:30am 22.5 19.8 9.0 42 7.2 NNW 13 24 7 13 1017.5 1017.4 0.0
28/11:00am 22.2 20.2 10.0 46 6.6 N 11 20 6 11 1017.5 1017.4 0.0
28/10:30am 21.3 19.2 9.9 48 6.2 NW 11 22 6 12 1017.7 1017.6 0.0
28/10:00am 24.1 20.1 8.9 38 8.2 NW 20 33 11 18 1018.2 1018.1 0.0
28/09:30am 24.1 20.6 8.9 38 8.2 NNW 17 30 9 16 1018.0 1017.9 0.0
28/09:00am 23.1 19.2 8.8 40 7.6 NNW 19 30 10 16 1017.7 1017.6 0.0
28/08:30am 22.2 18.3 8.7 42 7.2 NNW 19 30 10 16 1017.2 1017.1 0.0
28/08:00am 22.1 18.9 8.6 42 7.1 N 15 26 8 14 1016.5 1016.4 0.0
28/07:30am 21.6 19.2 8.8 44 6.8 N 11 22 6 12 1015.9 1015.8 0.0
28/07:00am 21.4 18.6 8.7 44 6.7 N 13 28 7 15 1015.5 1015.4 0.0
28/06:30am 21.5 19.1 8.7 44 6.8 N 11 22 6 12 1015.4 1015.3 0.0
28/06:00am 21.6 19.2 8.5 43 6.9 NNW 11 24 6 13 1015.7 1015.6 0.0
28/05:30am 21.6 19.0 7.8 41 7.2 N 11 22 6 12 1015.4 1015.3 0.0
28/05:00am 21.5 18.8 7.3 40 7.3 N 11 17 6 9 1015.3 1015.2 0.0
28/04:30am 21.4 18.7 7.3 40 7.3 N 11 20 6 11 1015.2 1015.1 0.0
28/04:00am 21.9 19.2 7.3 39 7.5 N 11 20 6 11 1015.0 1014.9 0.0
28/03:30am 22.2 17.9 6.8 37 7.9 N 19 33 10 18 1015.2 1015.1 0.0
28/03:00am 21.3 19.0 7.5 41 7.1 N 9 15 5 8 1015.5 1015.4 0.0
28/02:30am 21.5 19.1 7.0 39 7.4 NNW 9 17 5 9 1015.7 1015.6 0.0
28/02:00am 22.1 18.5 6.7 37 7.9 NNW 15 24 8 13 1015.6 1015.5 0.0
28/01:30am 22.4 18.8 6.6 36 8.1 N 15 30 8 16 1015.3 1015.2 0.0
28/01:00am 22.4 19.6 7.0 37 7.9 N 11 24 6 13 1015.3 1015.2 0.0
28/12:30am 22.7 19.9 6.9 36 8.1 N 11 24 6 13 1015.2 1015.1 0.0
28/12:00am 22.9 19.6 6.6 35 8.3 N 13 28 7 15 1015.2 1015.1 0.0
 
Date/Time
EST
Temp
°C
App
Temp
°C
Dew
Point
Rel
Hum
%
Delta-T
°C
Wind Press
QNH
hPa
Press
MSL
hPa
Rain
since 9 am
mm
Dir
 
Spd
km/h
Gust
km/h
Spd
kts
Gust
kts
27/11:30pm 22.8 19.6 7.0 36 8.2 N 13 26 7 14 1015.1 1015.0 0.0
27/11:00pm 22.5 19.4 7.1 37 7.9 N 13 20 7 11 1015.4 1015.3 0.0
27/10:30pm 22.2 19.6 7.6 39 7.6 NNE 11 17 6 9 1015.6 1015.5 0.0
27/10:00pm 22.3 20.4 7.7 39 7.6 N 7 17 4 9 1016.0 1015.9 0.0
27/09:30pm 22.6 20.0 7.6 38 7.8 N 11 20 6 11 1016.2 1016.1 0.0
27/09:00pm 22.9 20.2 7.4 37 8.1 N 11 24 6 13 1016.2 1016.1 0.0
27/08:30pm 22.9 19.9 7.8 38 7.9 N 13 28 7 15 1016.1 1016.0 0.0
27/08:00pm 23.2 20.2 7.7 37 8.1 N 13 26 7 14 1016.0 1015.9 0.0
27/07:30pm 23.4 20.4 7.9 37 8.2 NNE 13 26 7 14 1015.9 1015.8 0.0
27/07:00pm 23.5 20.2 8.0 37 8.2 NNE 15 26 8 14 1015.8 1015.7 0.0
27/06:30pm 23.7 20.1 8.2 37 8.2 N 17 33 9 18 1015.9 1015.8 0.0
27/06:00pm 23.8 20.5 8.2 37 8.3 N 15 26 8 14 1015.8 1015.7 0.0
27/05:30pm 24.1 20.8 8.1 36 8.5 N 15 28 8 15 1015.5 1015.4 0.0
27/05:00pm 24.2 20.6 8.2 36 8.5 N 17 32 9 17 1015.5 1015.4 0.0
27/04:30pm 24.4 21.1 8.0 35 8.7 N 15 33 8 18 1015.4 1015.3 0.0
27/04:00pm 24.6 20.3 7.7 34 8.9 N 20 41 11 22 1015.4 1015.3 0.0
27/03:30pm 25.1 20.8 7.7 33 9.2 N 20 33 11 18 1015.4 1015.3 0.0
27/03:07pm 25.3 19.4 7.4 32 9.4 N 28 48 15 26 1015.2 1015.1 0.0
27/03:00pm 25.8 20.3 7.4 31 9.7 N 26 46 14 25 1015.3 1015.2 0.0
27/02:38pm 26.0 20.1 7.6 31 9.8 N 28 46 15 25 1015.4 1015.3 0.0
27/02:30pm 26.0 20.9 7.6 31 9.8 NNW 24 39 13 21 1015.5 1015.4 0.0
27/02:00pm 26.0 20.5 7.6 31 9.8 N 26 44 14 24 1015.6 1015.5 0.0
27/01:45pm 25.8 19.9 7.4 31 9.7 N 28 48 15 26 1015.8 1015.7 0.0
27/01:30pm 25.6 20.9 7.7 32 9.5 NNW 22 43 12 23 1016.0 1015.9 0.0
27/01:00pm 25.0 20.3 7.6 33 9.2 NNW 22 41 12 22 1016.5 1016.4 0.0
27/12:30pm 24.6 19.0 7.3 33 9.1 N 26 44 14 24 1017.0 1016.9 0.0
27/12:00pm 25.5 20.9 8.1 33 9.3 N 22 41 12 22 1017.7 1017.6 0.0
27/11:30am 24.4 19.2 7.1 33 9.0 N 24 44 13 24 1018.0 1017.9 0.0
27/11:00am 24.0 18.7 6.7 33 8.9 N 24 46 13 25 1018.9 1018.8 0.0
27/10:30am 23.3 18.8 7.0 35 8.4 N 20 35 11 19 1019.3 1019.2 0.0
27/10:00am 22.2 18.4 6.0 35 8.2 N 15 28 8 15 1019.7 1019.6 0.0
27/09:30am 22.0 18.3 6.3 36 8.0 N 15 28 8 15 1020.0 1019.9 0.0
27/09:00am 22.2 18.1 6.0 35 8.2 N 17 32 9 17 1020.3 1020.2 0.0
27/08:30am 21.4 17.2 5.7 36 7.8 N 17 37 9 20 1020.2 1020.1 0.0
27/08:00am 20.0 17.1 6.7 42 6.7 N 11 24 6 13 1019.8 1019.7 0.0
27/07:30am 17.2 15.6 6.4 49 5.3 NNE 4 13 2 7 1019.7 1019.6 0.0
27/07:00am 16.2 13.9 5.8 50 5.0 N 7 17 4 9 1019.5 1019.4 0.0
27/06:30am 15.6 13.3 5.8 52 4.7 N 7 17 4 9 1019.6 1019.5 0.0
27/06:00am 14.9 13.2 6.0 55 4.3 NNE 4 13 2 7 1019.7 1019.6 0.0
27/05:30am 14.4 12.8 6.3 58 3.9 N 4 15 2 8 1019.6 1019.5 0.0
27/05:00am 13.7 11.5 6.3 61 3.5 N 7 15 4 8 1019.4 1019.3 0.0
27/04:30am 12.9 11.5 7.1 68 2.8 NNE 4 13 2 7 1019.4 1019.3 0.0
27/04:00am 12.2 11.1 7.1 71 2.4 NNE 2 11 1 6 1019.5 1019.4 0.0
27/03:30am 12.1 11.0 6.8 70 2.5 NNE 2 11 1 6 1019.7 1019.6 0.0
27/03:00am 12.2 10.8 7.3 72 2.4 NNE 4 13 2 7 1020.1 1020.0 0.0
27/02:30am 12.1 11.7 8.2 77 1.9 CALM 0 11 0 6 1020.5 1020.4 0.0
27/02:00am 12.2 11.6 9.0 81 1.6 NNE 2 11 1 6 1020.7 1020.6 0.0
27/01:30am 11.5 11.2 8.5 82 1.5 CALM 0 9 0 5 1021.0 1020.9 0.0
27/01:00am 10.8 10.6 9.1 89 0.8 CALM 0 0 0 0 1021.3 1021.2 0.0
27/12:30am 10.7 10.4 8.8 88 0.9 CALM 0 0 0 0 1021.5 1021.4 0.0
27/12:00am 11.6 11.6 9.7 88 1.0 CALM 0 0 0 0 1021.7 1021.6 0.0
 
Date/Time
EST
Temp
°C
App
Temp
°C
Dew
Point
Rel
Hum
%
Delta-T
°C
Wind Press
QNH
hPa
Press
MSL
hPa
Rain
since 9 am
mm
Dir
 
Spd
km/h
Gust
km/h
Spd
kts
Gust
kts
26/11:30pm 11.4 11.1 8.8 84 1.3 CALM 0 0 0 0 1022.0 1022.0 0.0
26/11:00pm 12.3 12.1 9.1 81 1.6 CALM 0 0 0 0 1022.2 1022.2 0.0
26/10:30pm 13.3 13.2 9.5 78 1.9 CALM 0 0 0 0 1022.4 1022.4 0.0
26/10:00pm 13.5 13.2 8.6 72 2.4 CALM 0 0 0 0 1022.4 1022.4 0.0
26/09:30pm 12.2 11.4 6.5 68 2.7 CALM 0 0 0 0 1022.6 1022.6 0.0
26/09:00pm 13.6 13.0 7.4 66 3.0 CALM 0 0 0 0 1022.8 1022.8 0.0
26/08:30pm 14.8 14.2 7.6 62 3.6 CALM 0 9 0 5 1022.8 1022.8 0.0
26/08:00pm 14.2 13.7 7.9 66 3.1 CALM 0 0 0 0 1022.8 1022.8 0.0
26/07:30pm 13.9 12.4 7.0 63 3.4 NNE 4 6 2 3 1023.0 1023.0 0.0
26/07:00pm 16.5 15.9 7.4 55 4.5 CALM 0 7 0 4 1023.1 1023.1 0.0
26/06:30pm 17.5 16.6 6.1 47 5.6 CALM 0 0 0 0 1022.9 1022.9 0.0
26/06:00pm 20.5 19.1 5.3 37 7.5 N 2 9 1 5 1022.7 1022.7 0.0
26/05:30pm 22.2 20.6 4.7 32 8.6 N 2 9 1 5 1022.6 1022.6 0.0
26/05:00pm 23.9 21.3 4.3 28 9.7 N 7 17 4 9 1022.7 1022.7 0.0
26/04:30pm 24.7 21.3 3.9 26 10.3 N 11 19 6 10 1022.7 1022.7 0.0
26/04:00pm 25.3 22.3 3.9 25 10.6 N 9 19 5 10 1023.0 1023.0 0.0
26/03:30pm 25.3 21.8 3.3 24 10.8 NNW 11 22 6 12 1023.3 1023.3 0.0
26/03:00pm 25.2 21.3 3.2 24 10.7 N 13 24 7 13 1023.6 1023.6 0.0
26/02:30pm 24.5 21.2 4.3 27 10.0 NNW 11 19 6 10 1023.8 1023.8 0.0
26/02:00pm 24.9 20.8 4.6 27 10.1 NNW 15 24 8 13 1024.2 1024.2 0.0
26/01:30pm 24.9 20.8 4.6 27 10.2 NNW 15 24 8 13 1024.6 1024.6 0.0
26/01:00pm 25.0 20.7 5.2 28 10.0 NNW 17 26 9 14 1024.9 1024.9 0.0
26/12:30pm 24.3 20.6 4.6 28 9.8 N 13 26 7 14 1025.4 1025.4 0.0
26/12:00pm 24.5 20.7 5.8 30 9.5 NNW 15 28 8 15 1026.0 1026.0 0.0
26/11:30am 24.1 21.1 5.9 31 9.3 NNW 11 24 6 13 1026.4 1026.4 0.0
26/11:00am 23.3 20.1 7.0 35 8.4 NNW 13 24 7 13 1026.9 1026.9 0.0
26/10:30am 21.9 20.0 9.1 44 6.8 N 9 20 5 11 1027.0 1027.0 0.0

Other Formats:

Comma delimited format used in spreadsheet applications
http://www.bom.gov.au/fwo/IDV60801/IDV60801.94898.axf

JavaScript Object Notation format (JSON) in row-major order
http://www.bom.gov.au/fwo/IDV60801/IDV60801.94898.json